Список аэропортов
Фактическая погода:

25 июня, 11:00
Температура: +19°C (+19.0*)
Ветер: сев.-восточный 2 м/с
Давление: *762 мм
неб. облачность
480 м
облачно
кучево-дождевые 900 м
слаб. ливневый дождь
Время (МСК)Темп. СВетерВлажностьДавлениеОблачностьОсадки
09:00+23Ю, 4 м/с79%1014 гПамалооблачно
10:00+23Ю, 4 м/с76%1014 гПас прояснениями
11:00+24Ю, 5 м/с72%1014 гПамалооблачно
12:00+24Ю, 5 м/с72%1015 гПаясно
13:00+24Ю, 5 м/с75%1015 гПамалооблачно
14:00+24Ю, 4 м/с79%1015 гПас прояснениями
15:00+24ЮЗ, 2 м/с80%1016 гПас прояснениямисл. дождь
16:00+24ЮЗ, 1 м/с76%1016 гПас прояснениями
17:00+24З, 2 м/с74%1016 гПаясно
18:00+23З, 3 м/с78%1015 гПаясно
19:00+22З, 3 м/с83%1015 гПаясно
20:00+21СЗ, 2 м/с90%1016 гПаясно
21:00+20СЗ, 1 м/с95%1017 гПаясно
22:00+20СЗ, 1 м/с97%1017 гПаясно
23:00+19Штиль 98%1017 гПамалооблачно
26 июня
00:00+18СВ, 1 м/с97%1017 гПамалооблачно
01:00+18СВ, 1 м/с96%1017 гПас прояснениями
02:00+18В, 2 м/с96%1017 гПас прояснениями
03:00+19В, 2 м/с96%1017 гПас прояснениями
04:00+19СВ, 2 м/с97%1017 гПаоблачно
05:00+18СВ, 2 м/с96%1017 гПамалооблачно
06:00+19СВ, 1 м/с93%1017 гПаясно
07:00+21В, 1 м/с88%1016 гПаясно
08:00+22Ю, 2 м/с80%1016 гПаясно
09:00+23Ю, 2 м/с75%1015 гПаясно
10:00+24Ю, 2 м/с72%1015 гПаясно
11:00+25ЮЗ, 3 м/с70%1015 гПаясно
12:00+25ЮЗ, 3 м/с72%1014 гПаясно
13:00+25З, 4 м/с71%1014 гПаясно
14:00+25З, 4 м/с68%1014 гПаясно
15:00+26З, 5 м/с66%1013 гПаясно
16:00+26СЗ, 5 м/с63%1012 гПаясно
17:00+26СЗ, 5 м/с61%1012 гПаясно
18:00+26СЗ, 4 м/с61%1011 гПаясно
19:00+25З, 3 м/с65%1011 гПаясно
20:00+23З, 3 м/с78%1012 гПаясно
21:00+21З, 2 м/с88%1012 гПаясно
22:00+20З, 1 м/с94%1013 гПаясно
23:00+20Ю, 1 м/с96%1013 гПас прояснениями
27 июня
00:00+20ЮВ, 1 м/с97%1013 гПаоблачно
01:00+20ЮВ, 1 м/с96%1013 гПас прояснениями
02:00+20ЮВ, 1 м/с97%1013 гПаоблачно
03:00+20В, 1 м/с96%1012 гПаоблачно
04:00+20В, 1 м/с95%1012 гПаоблачно
05:00+19СВ, 1 м/с94%1012 гПамалооблачно
06:00+19СВ, 1 м/с91%1012 гПаясно
07:00+21СВ, 1 м/с81%1012 гПаясно
08:00+24СЗ, 1 м/с66%1011 гПаясно
09:00+26З, 2 м/с64%1011 гПаясно